sensor_id;sensor_type;location;lat;lon;timestamp;P1;durP1;ratioP1;P2;durP2;ratioP2
69334;SDS011;56477;52.742;15.242;2023-05-14T00:01:25;9.18;;;6.35;;
69334;SDS011;56477;52.742;15.242;2023-05-14T00:03:50;11.80;;;6.30;;
69334;SDS011;56477;52.742;15.242;2023-05-14T00:06:17;12.88;;;6.43;;
69334;SDS011;56477;52.742;15.242;2023-05-14T00:08:42;10.63;;;6.27;;
69334;SDS011;56477;52.742;15.242;2023-05-14T00:11:08;10.32;;;5.55;;
69334;SDS011;56477;52.742;15.242;2023-05-14T00:13:34;12.25;;;6.43;;
69334;SDS011;56477;52.742;15.242;2023-05-14T00:16:01;14.68;;;8.07;;
69334;SDS011;56477;52.742;15.242;2023-05-14T00:18:27;14.20;;;9.40;;
69334;SDS011;56477;52.742;15.242;2023-05-14T00:20:53;21.88;;;10.85;;
69334;SDS011;56477;52.742;15.242;2023-05-14T00:23:19;19.30;;;11.38;;
69334;SDS011;56477;52.742;15.242;2023-05-14T00:25:46;23.35;;;11.60;;
69334;SDS011;56477;52.742;15.242;2023-05-14T00:28:12;21.13;;;11.47;;
69334;SDS011;56477;52.742;15.242;2023-05-14T00:30:38;23.23;;;11.27;;
69334;SDS011;56477;52.742;15.242;2023-05-14T00:33:05;22.00;;;12.65;;
69334;SDS011;56477;52.742;15.242;2023-05-14T00:35:31;17.67;;;10.43;;
69334;SDS011;56477;52.742;15.242;2023-05-14T00:37:59;17.08;;;8.50;;
69334;SDS011;56477;52.742;15.242;2023-05-14T00:40:27;14.77;;;8.70;;
69334;SDS011;56477;52.742;15.242;2023-05-14T00:42:54;17.05;;;7.50;;
69334;SDS011;56477;52.742;15.242;2023-05-14T00:45:20;19.33;;;10.82;;
69334;SDS011;56477;52.742;15.242;2023-05-14T00:47:47;18.75;;;9.57;;
69334;SDS011;56477;52.742;15.242;2023-05-14T00:50:15;18.23;;;10.77;;
69334;SDS011;56477;52.742;15.242;2023-05-14T00:52:41;23.40;;;12.10;;
69334;SDS011;56477;52.742;15.242;2023-05-14T00:55:07;22.13;;;12.45;;
69334;SDS011;56477;52.742;15.242;2023-05-14T00:57:34;20.63;;;12.10;;
69334;SDS011;56477;52.742;15.242;2023-05-14T01:00:01;18.85;;;10.57;;
69334;SDS011;56477;52.742;15.242;2023-05-14T01:02:28;19.13;;;10.55;;
69334;SDS011;56477;52.742;15.242;2023-05-14T01:04:54;14.93;;;8.50;;
69334;SDS011;56477;52.742;15.242;2023-05-14T01:15:34;14.98;;;7.68;;
69334;SDS011;56477;52.742;15.242;2023-05-14T01:18:06;14.77;;;9.03;;
69334;SDS011;56477;52.742;15.242;2023-05-14T01:20:38;19.15;;;10.10;;
69334;SDS011;56477;52.742;15.242;2023-05-14T01:23:03;16.85;;;10.63;;
69334;SDS011;56477;52.742;15.242;2023-05-14T01:25:30;19.55;;;10.63;;
69334;SDS011;56477;52.742;15.242;2023-05-14T01:28:08;17.43;;;10.50;;
69334;SDS011;56477;52.742;15.242;2023-05-14T01:30:41;18.20;;;9.38;;
69334;SDS011;56477;52.742;15.242;2023-05-14T01:33:13;20.88;;;10.70;;
69334;SDS011;56477;52.742;15.242;2023-05-14T01:35:41;17.58;;;10.20;;
69334;SDS011;56477;52.742;15.242;2023-05-14T01:38:10;17.85;;;10.13;;
69334;SDS011;56477;52.742;15.242;2023-05-14T01:40:38;18.87;;;10.20;;
69334;SDS011;56477;52.742;15.242;2023-05-14T01:43:04;17.73;;;10.80;;
69334;SDS011;56477;52.742;15.242;2023-05-14T01:45:33;18.23;;;11.27;;
69334;SDS011;56477;52.742;15.242;2023-05-14T01:48:00;19.08;;;10.45;;
69334;SDS011;56477;52.742;15.242;2023-05-14T01:50:26;16.80;;;10.40;;
69334;SDS011;56477;52.742;15.242;2023-05-14T01:52:52;22.37;;;11.60;;
69334;SDS011;56477;52.742;15.242;2023-05-14T01:55:21;22.20;;;11.38;;
69334;SDS011;56477;52.742;15.242;2023-05-14T01:57:49;21.75;;;11.63;;
69334;SDS011;56477;52.742;15.242;2023-05-14T02:00:16;19.90;;;11.45;;
69334;SDS011;56477;52.742;15.242;2023-05-14T02:02:42;17.60;;;10.77;;
69334;SDS011;56477;52.742;15.242;2023-05-14T02:05:09;20.77;;;12.07;;
69334;SDS011;56477;52.742;15.242;2023-05-14T02:07:35;19.27;;;11.25;;
69334;SDS011;56477;52.742;15.242;2023-05-14T02:10:02;17.98;;;10.80;;
69334;SDS011;56477;52.742;15.242;2023-05-14T02:12:28;18.50;;;9.93;;
69334;SDS011;56477;52.742;15.242;2023-05-14T02:14:54;20.10;;;10.07;;
69334;SDS011;56477;52.742;15.242;2023-05-14T02:17:20;17.13;;;10.13;;
69334;SDS011;56477;52.742;15.242;2023-05-14T02:19:46;17.67;;;10.32;;
69334;SDS011;56477;52.742;15.242;2023-05-14T02:22:12;17.83;;;10.30;;
69334;SDS011;56477;52.742;15.242;2023-05-14T02:24:38;16.57;;;10.40;;
69334;SDS011;56477;52.742;15.242;2023-05-14T02:27:05;17.27;;;11.50;;
69334;SDS011;56477;52.742;15.242;2023-05-14T02:29:31;13.98;;;9.23;;
69334;SDS011;56477;52.742;15.242;2023-05-14T02:31:57;13.65;;;8.32;;
69334;SDS011;56477;52.742;15.242;2023-05-14T02:34:23;14.90;;;7.90;;
69334;SDS011;56477;52.742;15.242;2023-05-14T02:36:49;13.50;;;7.72;;
69334;SDS011;56477;52.742;15.242;2023-05-14T02:39:15;12.57;;;8.02;;
69334;SDS011;56477;52.742;15.242;2023-05-14T02:41:41;13.02;;;7.53;;
69334;SDS011;56477;52.742;15.242;2023-05-14T02:44:07;16.33;;;8.10;;
69334;SDS011;56477;52.742;15.242;2023-05-14T02:46:33;15.75;;;7.70;;
69334;SDS011;56477;52.742;15.242;2023-05-14T02:48:59;11.68;;;7.22;;
69334;SDS011;56477;52.742;15.242;2023-05-14T02:51:26;11.13;;;7.03;;
69334;SDS011;56477;52.742;15.242;2023-05-14T02:53:52;15.63;;;7.30;;
69334;SDS011;56477;52.742;15.242;2023-05-14T02:56:18;11.75;;;7.40;;
69334;SDS011;56477;52.742;15.242;2023-05-14T02:58:44;12.95;;;7.05;;
69334;SDS011;56477;52.742;15.242;2023-05-14T03:01:09;11.37;;;7.33;;
69334;SDS011;56477;52.742;15.242;2023-05-14T03:03:36;12.13;;;7.40;;
69334;SDS011;56477;52.742;15.242;2023-05-14T03:06:02;16.13;;;8.27;;
69334;SDS011;56477;52.742;15.242;2023-05-14T03:08:29;14.38;;;7.45;;
69334;SDS011;56477;52.742;15.242;2023-05-14T03:10:55;12.63;;;7.83;;
69334;SDS011;56477;52.742;15.242;2023-05-14T03:13:21;14.75;;;8.10;;
69334;SDS011;56477;52.742;15.242;2023-05-14T03:15:47;14.52;;;8.07;;
69334;SDS011;56477;52.742;15.242;2023-05-14T03:18:13;15.02;;;7.90;;
69334;SDS011;56477;52.742;15.242;2023-05-14T03:20:39;12.63;;;7.80;;
69334;SDS011;56477;52.742;15.242;2023-05-14T03:23:06;16.42;;;8.65;;
69334;SDS011;56477;52.742;15.242;2023-05-14T03:25:31;13.93;;;8.52;;
69334;SDS011;56477;52.742;15.242;2023-05-14T03:27:59;13.13;;;8.07;;
69334;SDS011;56477;52.742;15.242;2023-05-14T03:30:24;13.00;;;7.83;;
69334;SDS011;56477;52.742;15.242;2023-05-14T03:32:51;12.32;;;8.15;;
69334;SDS011;56477;52.742;15.242;2023-05-14T03:35:17;16.88;;;9.05;;
69334;SDS011;56477;52.742;15.242;2023-05-14T03:37:43;13.25;;;8.95;;
69334;SDS011;56477;52.742;15.242;2023-05-14T03:40:09;15.00;;;8.60;;
69334;SDS011;56477;52.742;15.242;2023-05-14T03:42:36;14.57;;;8.68;;
69334;SDS011;56477;52.742;15.242;2023-05-14T03:45:02;15.05;;;9.45;;
69334;SDS011;56477;52.742;15.242;2023-05-14T03:47:28;14.50;;;8.82;;
69334;SDS011;56477;52.742;15.242;2023-05-14T03:49:54;17.73;;;9.33;;
69334;SDS011;56477;52.742;15.242;2023-05-14T03:52:20;13.38;;;8.70;;
69334;SDS011;56477;52.742;15.242;2023-05-14T03:54:46;13.02;;;8.52;;
69334;SDS011;56477;52.742;15.242;2023-05-14T03:57:12;16.73;;;9.10;;
69334;SDS011;56477;52.742;15.242;2023-05-14T03:59:38;14.50;;;8.82;;
69334;SDS011;56477;52.742;15.242;2023-05-14T04:02:04;13.93;;;8.70;;
69334;SDS011;56477;52.742;15.242;2023-05-14T04:04:30;13.82;;;8.55;;
69334;SDS011;56477;52.742;15.242;2023-05-14T04:06:56;14.33;;;8.77;;
69334;SDS011;56477;52.742;15.242;2023-05-14T04:09:22;15.30;;;9.20;;
69334;SDS011;56477;52.742;15.242;2023-05-14T04:11:48;18.98;;;9.27;;
69334;SDS011;56477;52.742;15.242;2023-05-14T04:14:14;15.83;;;9.50;;
69334;SDS011;56477;52.742;15.242;2023-05-14T04:16:40;16.35;;;10.25;;
69334;SDS011;56477;52.742;15.242;2023-05-14T04:19:06;18.02;;;10.20;;
69334;SDS011;56477;52.742;15.242;2023-05-14T04:21:32;16.25;;;9.95;;
69334;SDS011;56477;52.742;15.242;2023-05-14T04:23:58;14.97;;;9.60;;
69334;SDS011;56477;52.742;15.242;2023-05-14T04:26:24;15.73;;;10.05;;
69334;SDS011;56477;52.742;15.242;2023-05-14T04:28:50;18.48;;;10.13;;
69334;SDS011;56477;52.742;15.242;2023-05-14T04:31:17;17.83;;;10.02;;
69334;SDS011;56477;52.742;15.242;2023-05-14T04:33:43;15.50;;;9.50;;
69334;SDS011;56477;52.742;15.242;2023-05-14T04:36:09;16.15;;;10.15;;
69334;SDS011;56477;52.742;15.242;2023-05-14T04:38:35;17.00;;;10.30;;
69334;SDS011;56477;52.742;15.242;2023-05-14T04:41:01;17.13;;;9.40;;
69334;SDS011;56477;52.742;15.242;2023-05-14T04:43:27;19.20;;;10.80;;
69334;SDS011;56477;52.742;15.242;2023-05-14T04:45:53;23.25;;;12.18;;
69334;SDS011;56477;52.742;15.242;2023-05-14T04:48:18;15.70;;;9.30;;
69334;SDS011;56477;52.742;15.242;2023-05-14T04:50:45;17.97;;;9.80;;
69334;SDS011;56477;52.742;15.242;2023-05-14T04:53:11;16.60;;;9.70;;
69334;SDS011;56477;52.742;15.242;2023-05-14T04:55:37;13.50;;;8.82;;
69334;SDS011;56477;52.742;15.242;2023-05-14T04:58:03;16.80;;;9.10;;
69334;SDS011;56477;52.742;15.242;2023-05-14T05:00:29;17.27;;;9.15;;
69334;SDS011;56477;52.742;15.242;2023-05-14T05:02:56;17.48;;;9.30;;
69334;SDS011;56477;52.742;15.242;2023-05-14T05:05:22;14.98;;;9.00;;
69334;SDS011;56477;52.742;15.242;2023-05-14T05:07:48;16.63;;;8.68;;
69334;SDS011;56477;52.742;15.242;2023-05-14T05:10:14;17.00;;;8.60;;
69334;SDS011;56477;52.742;15.242;2023-05-14T05:12:40;14.63;;;9.07;;
69334;SDS011;56477;52.742;15.242;2023-05-14T05:15:06;15.50;;;9.52;;
69334;SDS011;56477;52.742;15.242;2023-05-14T05:17:33;17.52;;;9.43;;
69334;SDS011;56477;52.742;15.242;2023-05-14T05:20:00;18.73;;;9.43;;
69334;SDS011;56477;52.742;15.242;2023-05-14T05:22:26;18.48;;;9.82;;
69334;SDS011;56477;52.742;15.242;2023-05-14T05:24:52;14.68;;;9.30;;
69334;SDS011;56477;52.742;15.242;2023-05-14T05:27:18;17.97;;;9.67;;
69334;SDS011;56477;52.742;15.242;2023-05-14T05:29:45;19.48;;;11.10;;
69334;SDS011;56477;52.742;15.242;2023-05-14T05:32:11;16.15;;;9.77;;
69334;SDS011;56477;52.742;15.242;2023-05-14T05:34:37;16.63;;;9.80;;
69334;SDS011;56477;52.742;15.242;2023-05-14T05:37:03;13.50;;;9.07;;
69334;SDS011;56477;52.742;15.242;2023-05-14T05:39:30;15.95;;;8.88;;
69334;SDS011;56477;52.742;15.242;2023-05-14T05:41:59;15.20;;;8.68;;
69334;SDS011;56477;52.742;15.242;2023-05-14T05:44:27;12.45;;;8.30;;
69334;SDS011;56477;52.742;15.242;2023-05-14T05:46:52;14.30;;;8.83;;
69334;SDS011;56477;52.742;15.242;2023-05-14T05:49:21;16.98;;;9.32;;
69334;SDS011;56477;52.742;15.242;2023-05-14T05:51:47;16.33;;;9.27;;
69334;SDS011;56477;52.742;15.242;2023-05-14T05:54:13;15.35;;;9.07;;
69334;SDS011;56477;52.742;15.242;2023-05-14T05:56:39;16.50;;;9.10;;
69334;SDS011;56477;52.742;15.242;2023-05-14T05:59:05;17.40;;;8.73;;
69334;SDS011;56477;52.742;15.242;2023-05-14T06:01:31;15.27;;;9.13;;
69334;SDS011;56477;52.742;15.242;2023-05-14T06:03:57;15.30;;;9.43;;
69334;SDS011;56477;52.742;15.242;2023-05-14T06:06:23;14.87;;;8.80;;
69334;SDS011;56477;52.742;15.242;2023-05-14T06:08:49;15.30;;;8.55;;
69334;SDS011;56477;52.742;15.242;2023-05-14T06:11:15;14.55;;;8.95;;
69334;SDS011;56477;52.742;15.242;2023-05-14T06:13:41;16.10;;;8.93;;
69334;SDS011;56477;52.742;15.242;2023-05-14T06:16:07;13.47;;;9.00;;
69334;SDS011;56477;52.742;15.242;2023-05-14T06:18:33;18.23;;;9.45;;
69334;SDS011;56477;52.742;15.242;2023-05-14T06:20:59;15.57;;;9.57;;
69334;SDS011;56477;52.742;15.242;2023-05-14T06:23:25;14.80;;;8.80;;
69334;SDS011;56477;52.742;15.242;2023-05-14T06:25:51;15.75;;;9.27;;
69334;SDS011;56477;52.742;15.242;2023-05-14T06:28:17;18.67;;;9.48;;
69334;SDS011;56477;52.742;15.242;2023-05-14T06:30:43;19.00;;;9.20;;
69334;SDS011;56477;52.742;15.242;2023-05-14T06:33:09;15.18;;;9.65;;
69334;SDS011;56477;52.742;15.242;2023-05-14T06:35:37;13.02;;;8.25;;
69334;SDS011;56477;52.742;15.242;2023-05-14T06:38:03;12.75;;;9.35;;
69334;SDS011;56477;52.742;15.242;2023-05-14T06:40:29;15.03;;;8.47;;
69334;SDS011;56477;52.742;15.242;2023-05-14T06:42:55;15.65;;;8.73;;
69334;SDS011;56477;52.742;15.242;2023-05-14T06:45:21;12.57;;;7.97;;
69334;SDS011;56477;52.742;15.242;2023-05-14T06:47:47;13.23;;;8.30;;
69334;SDS011;56477;52.742;15.242;2023-05-14T06:50:13;13.40;;;8.40;;
69334;SDS011;56477;52.742;15.242;2023-05-14T06:52:39;14.57;;;8.68;;
69334;SDS011;56477;52.742;15.242;2023-05-14T06:55:05;15.50;;;8.63;;
69334;SDS011;56477;52.742;15.242;2023-05-14T06:57:31;13.70;;;7.80;;
69334;SDS011;56477;52.742;15.242;2023-05-14T06:59:58;12.57;;;8.20;;
69334;SDS011;56477;52.742;15.242;2023-05-14T07:02:24;15.30;;;8.75;;
69334;SDS011;56477;52.742;15.242;2023-05-14T07:04:50;13.32;;;8.10;;
69334;SDS011;56477;52.742;15.242;2023-05-14T07:07:16;12.05;;;8.15;;
69334;SDS011;56477;52.742;15.242;2023-05-14T07:09:44;13.53;;;8.13;;
69334;SDS011;56477;52.742;15.242;2023-05-14T07:12:11;14.68;;;8.40;;
69334;SDS011;56477;52.742;15.242;2023-05-14T07:14:36;14.60;;;7.90;;
69334;SDS011;56477;52.742;15.242;2023-05-14T07:17:03;17.25;;;8.48;;
69334;SDS011;56477;52.742;15.242;2023-05-14T07:19:29;14.37;;;8.33;;
69334;SDS011;56477;52.742;15.242;2023-05-14T07:21:55;14.15;;;8.15;;
69334;SDS011;56477;52.742;15.242;2023-05-14T07:24:22;13.13;;;7.82;;
69334;SDS011;56477;52.742;15.242;2023-05-14T07:26:48;14.73;;;7.57;;
69334;SDS011;56477;52.742;15.242;2023-05-14T07:29:14;12.82;;;7.97;;
69334;SDS011;56477;52.742;15.242;2023-05-14T07:31:40;16.00;;;8.13;;
69334;SDS011;56477;52.742;15.242;2023-05-14T07:34:06;11.45;;;7.72;;
69334;SDS011;56477;52.742;15.242;2023-05-14T07:36:33;12.45;;;8.10;;
69334;SDS011;56477;52.742;15.242;2023-05-14T07:38:59;14.90;;;7.00;;
69334;SDS011;56477;52.742;15.242;2023-05-14T07:41:25;9.82;;;6.53;;
69334;SDS011;56477;52.742;15.242;2023-05-14T07:43:51;12.10;;;8.13;;
69334;SDS011;56477;52.742;15.242;2023-05-14T07:46:17;11.63;;;7.30;;
69334;SDS011;56477;52.742;15.242;2023-05-14T07:48:43;9.40;;;6.47;;
69334;SDS011;56477;52.742;15.242;2023-05-14T07:51:09;9.90;;;6.38;;
69334;SDS011;56477;52.742;15.242;2023-05-14T07:53:36;8.05;;;5.93;;
69334;SDS011;56477;52.742;15.242;2023-05-14T07:56:02;9.13;;;6.55;;
69334;SDS011;56477;52.742;15.242;2023-05-14T07:58:28;10.10;;;6.27;;
69334;SDS011;56477;52.742;15.242;2023-05-14T08:00:54;9.65;;;6.30;;
69334;SDS011;56477;52.742;15.242;2023-05-14T08:03:20;11.43;;;5.95;;
69334;SDS011;56477;52.742;15.242;2023-05-14T08:05:47;11.32;;;5.55;;
69334;SDS011;56477;52.742;15.242;2023-05-14T08:08:12;8.83;;;6.10;;
69334;SDS011;56477;52.742;15.242;2023-05-14T08:10:39;9.50;;;6.30;;
69334;SDS011;56477;52.742;15.242;2023-05-14T08:13:04;9.05;;;5.95;;
69334;SDS011;56477;52.742;15.242;2023-05-14T08:15:31;9.27;;;6.10;;
69334;SDS011;56477;52.742;15.242;2023-05-14T08:17:56;8.47;;;4.87;;
69334;SDS011;56477;52.742;15.242;2023-05-14T08:20:30;9.10;;;5.35;;
69334;SDS011;56477;52.742;15.242;2023-05-14T08:22:56;8.35;;;5.40;;
69334;SDS011;56477;52.742;15.242;2023-05-14T08:25:23;6.93;;;5.07;;
69334;SDS011;56477;52.742;15.242;2023-05-14T08:27:49;6.68;;;4.60;;
69334;SDS011;56477;52.742;15.242;2023-05-14T08:30:15;8.77;;;5.10;;
69334;SDS011;56477;52.742;15.242;2023-05-14T08:32:42;6.53;;;4.63;;
69334;SDS011;56477;52.742;15.242;2023-05-14T08:35:08;7.75;;;4.70;;
69334;SDS011;56477;52.742;15.242;2023-05-14T08:37:34;6.97;;;4.30;;
69334;SDS011;56477;52.742;15.242;2023-05-14T08:40:00;7.07;;;4.30;;
69334;SDS011;56477;52.742;15.242;2023-05-14T08:42:26;6.47;;;4.10;;
69334;SDS011;56477;52.742;15.242;2023-05-14T08:45:00;5.57;;;4.00;;
69334;SDS011;56477;52.742;15.242;2023-05-14T08:47:27;8.97;;;4.50;;
69334;SDS011;56477;52.742;15.242;2023-05-14T08:50:02;7.30;;;3.80;;
69334;SDS011;56477;52.742;15.242;2023-05-14T08:52:28;6.32;;;3.80;;
69334;SDS011;56477;52.742;15.242;2023-05-14T08:54:55;8.88;;;3.72;;
69334;SDS011;56477;52.742;15.242;2023-05-14T08:57:24;8.68;;;4.60;;
69334;SDS011;56477;52.742;15.242;2023-05-14T08:59:54;7.65;;;3.88;;
69334;SDS011;56477;52.742;15.242;2023-05-14T09:02:22;6.60;;;3.90;;
69334;SDS011;56477;52.742;15.242;2023-05-14T09:04:56;5.63;;;3.77;;
69334;SDS011;56477;52.742;15.242;2023-05-14T09:07:24;5.40;;;3.30;;
69334;SDS011;56477;52.742;15.242;2023-05-14T09:09:51;6.57;;;3.55;;
69334;SDS011;56477;52.742;15.242;2023-05-14T09:12:17;4.35;;;3.63;;
69334;SDS011;56477;52.742;15.242;2023-05-14T09:14:44;4.88;;;3.33;;
69334;SDS011;56477;52.742;15.242;2023-05-14T09:17:11;5.35;;;3.20;;
69334;SDS011;56477;52.742;15.242;2023-05-14T09:19:38;5.32;;;3.78;;
69334;SDS011;56477;52.742;15.242;2023-05-14T09:22:07;9.73;;;3.60;;
69334;SDS011;56477;52.742;15.242;2023-05-14T09:24:34;7.00;;;3.70;;
69334;SDS011;56477;52.742;15.242;2023-05-14T09:27:00;6.72;;;3.95;;
69334;SDS011;56477;52.742;15.242;2023-05-14T09:29:27;5.47;;;3.80;;
69334;SDS011;56477;52.742;15.242;2023-05-14T09:31:54;6.32;;;3.75;;
69334;SDS011;56477;52.742;15.242;2023-05-14T09:37:02;9.15;;;5.28;;
69334;SDS011;56477;52.742;15.242;2023-05-14T09:39:30;8.40;;;4.80;;
69334;SDS011;56477;52.742;15.242;2023-05-14T09:41:57;7.45;;;4.53;;
69334;SDS011;56477;52.742;15.242;2023-05-14T09:44:24;8.18;;;4.93;;
69334;SDS011;56477;52.742;15.242;2023-05-14T09:46:50;8.93;;;4.63;;
69334;SDS011;56477;52.742;15.242;2023-05-14T09:49:17;10.60;;;4.55;;
69334;SDS011;56477;52.742;15.242;2023-05-14T09:51:43;8.88;;;4.47;;
69334;SDS011;56477;52.742;15.242;2023-05-14T09:54:10;7.47;;;5.03;;
69334;SDS011;56477;52.742;15.242;2023-05-14T09:56:36;7.30;;;4.50;;
69334;SDS011;56477;52.742;15.242;2023-05-14T09:59:04;7.63;;;5.00;;
69334;SDS011;56477;52.742;15.242;2023-05-14T10:01:30;8.15;;;5.18;;
69334;SDS011;56477;52.742;15.242;2023-05-14T10:04:01;7.82;;;5.28;;
69334;SDS011;56477;52.742;15.242;2023-05-14T10:06:30;8.23;;;5.50;;
69334;SDS011;56477;52.742;15.242;2023-05-14T10:09:01;11.27;;;7.53;;
69334;SDS011;56477;52.742;15.242;2023-05-14T10:11:32;9.75;;;5.78;;
69334;SDS011;56477;52.742;15.242;2023-05-14T10:14:04;10.23;;;5.20;;
69334;SDS011;56477;52.742;15.242;2023-05-14T10:16:51;9.23;;;5.60;;
69334;SDS011;56477;52.742;15.242;2023-05-14T10:19:22;7.97;;;5.07;;
69334;SDS011;56477;52.742;15.242;2023-05-14T10:21:53;7.27;;;5.27;;
69334;SDS011;56477;52.742;15.242;2023-05-14T10:24:21;7.30;;;5.03;;
69334;SDS011;56477;52.742;15.242;2023-05-14T10:26:49;10.90;;;4.72;;
69334;SDS011;56477;52.742;15.242;2023-05-14T10:29:16;8.18;;;5.35;;
69334;SDS011;56477;52.742;15.242;2023-05-14T10:31:51;9.40;;;5.05;;
69334;SDS011;56477;52.742;15.242;2023-05-14T10:37:17;10.87;;;6.40;;
69334;SDS011;56477;52.742;15.242;2023-05-14T10:42:41;9.38;;;4.57;;
69334;SDS011;56477;52.742;15.242;2023-05-14T10:45:14;6.70;;;4.05;;
69334;SDS011;56477;52.742;15.242;2023-05-14T10:47:41;7.15;;;4.15;;
69334;SDS011;56477;52.742;15.242;2023-05-14T10:50:10;7.72;;;3.70;;
69334;SDS011;56477;52.742;15.242;2023-05-14T10:52:44;6.50;;;3.57;;
69334;SDS011;56477;52.742;15.242;2023-05-14T10:55:14;6.90;;;3.60;;
69334;SDS011;56477;52.742;15.242;2023-05-14T10:57:42;7.38;;;3.22;;
69334;SDS011;56477;52.742;15.242;2023-05-14T11:00:10;7.60;;;3.40;;
69334;SDS011;56477;52.742;15.242;2023-05-14T11:02:42;5.55;;;3.70;;
69334;SDS011;56477;52.742;15.242;2023-05-14T11:07:44;4.80;;;3.65;;
69334;SDS011;56477;52.742;15.242;2023-05-14T11:10:13;6.10;;;3.67;;
69334;SDS011;56477;52.742;15.242;2023-05-14T11:12:44;6.57;;;2.77;;
69334;SDS011;56477;52.742;15.242;2023-05-14T11:15:12;7.90;;;3.42;;
69334;SDS011;56477;52.742;15.242;2023-05-14T11:17:40;5.35;;;2.90;;
69334;SDS011;56477;52.742;15.242;2023-05-14T11:20:08;5.72;;;3.20;;
69334;SDS011;56477;52.742;15.242;2023-05-14T11:22:35;7.38;;;3.22;;
69334;SDS011;56477;52.742;15.242;2023-05-14T11:25:02;7.00;;;3.42;;
69334;SDS011;56477;52.742;15.242;2023-05-14T11:27:29;7.90;;;3.17;;
69334;SDS011;56477;52.742;15.242;2023-05-14T11:29:56;5.20;;;3.10;;
69334;SDS011;56477;52.742;15.242;2023-05-14T11:32:22;5.00;;;2.80;;
69334;SDS011;56477;52.742;15.242;2023-05-14T11:34:49;5.93;;;3.25;;
69334;SDS011;56477;52.742;15.242;2023-05-14T11:37:15;5.43;;;2.63;;
69334;SDS011;56477;52.742;15.242;2023-05-14T11:39:46;6.15;;;2.67;;
69334;SDS011;56477;52.742;15.242;2023-05-14T11:42:13;5.90;;;2.80;;
69334;SDS011;56477;52.742;15.242;2023-05-14T11:44:41;8.57;;;3.10;;
69334;SDS011;56477;52.742;15.242;2023-05-14T11:47:09;4.75;;;2.90;;
69334;SDS011;56477;52.742;15.242;2023-05-14T11:49:36;9.50;;;3.03;;
69334;SDS011;56477;52.742;15.242;2023-05-14T11:52:03;6.00;;;3.25;;
69334;SDS011;56477;52.742;15.242;2023-05-14T11:54:31;6.25;;;2.80;;
69334;SDS011;56477;52.742;15.242;2023-05-14T11:56:58;5.25;;;3.28;;
69334;SDS011;56477;52.742;15.242;2023-05-14T11:59:26;4.50;;;2.80;;
69334;SDS011;56477;52.742;15.242;2023-05-14T12:01:54;7.60;;;3.10;;
69334;SDS011;56477;52.742;15.242;2023-05-14T12:04:20;7.00;;;3.35;;
69334;SDS011;56477;52.742;15.242;2023-05-14T12:06:50;6.90;;;3.33;;
69334;SDS011;56477;52.742;15.242;2023-05-14T12:09:20;7.32;;;2.95;;
69334;SDS011;56477;52.742;15.242;2023-05-14T12:11:47;7.55;;;3.10;;
69334;SDS011;56477;52.742;15.242;2023-05-14T12:14:16;8.88;;;3.00;;
69334;SDS011;56477;52.742;15.242;2023-05-14T12:16:43;4.07;;;2.83;;
69334;SDS011;56477;52.742;15.242;2023-05-14T12:19:12;8.50;;;3.27;;
69334;SDS011;56477;52.742;15.242;2023-05-14T12:21:39;6.80;;;2.95;;
69334;SDS011;56477;52.742;15.242;2023-05-14T12:24:14;6.72;;;2.95;;
69334;SDS011;56477;52.742;15.242;2023-05-14T12:26:47;4.40;;;2.85;;
69334;SDS011;56477;52.742;15.242;2023-05-14T12:29:15;7.20;;;2.85;;
69334;SDS011;56477;52.742;15.242;2023-05-14T12:31:48;3.85;;;3.10;;
69334;SDS011;56477;52.742;15.242;2023-05-14T12:34:15;6.27;;;2.90;;
69334;SDS011;56477;52.742;15.242;2023-05-14T12:36:42;4.10;;;2.75;;
69334;SDS011;56477;52.742;15.242;2023-05-14T12:39:08;5.68;;;2.75;;
69334;SDS011;56477;52.742;15.242;2023-05-14T12:41:35;4.47;;;2.83;;
69334;SDS011;56477;52.742;15.242;2023-05-14T12:44:02;5.55;;;3.00;;
69334;SDS011;56477;52.742;15.242;2023-05-14T12:46:29;6.53;;;3.07;;
69334;SDS011;56477;52.742;15.242;2023-05-14T12:48:56;7.97;;;3.10;;
69334;SDS011;56477;52.742;15.242;2023-05-14T12:51:22;7.97;;;3.17;;
69334;SDS011;56477;52.742;15.242;2023-05-14T12:53:48;6.78;;;3.40;;
69334;SDS011;56477;52.742;15.242;2023-05-14T12:56:15;5.53;;;3.20;;
69334;SDS011;56477;52.742;15.242;2023-05-14T12:58:42;7.50;;;3.22;;
69334;SDS011;56477;52.742;15.242;2023-05-14T13:01:07;4.93;;;3.03;;
69334;SDS011;56477;52.742;15.242;2023-05-14T13:03:34;6.95;;;3.10;;
69334;SDS011;56477;52.742;15.242;2023-05-14T13:05:59;6.88;;;2.85;;
69334;SDS011;56477;52.742;15.242;2023-05-14T13:08:26;4.97;;;3.10;;
69334;SDS011;56477;52.742;15.242;2023-05-14T13:10:52;3.47;;;2.47;;
69334;SDS011;56477;52.742;15.242;2023-05-14T13:13:18;5.78;;;2.97;;
69334;SDS011;56477;52.742;15.242;2023-05-14T13:15:44;4.57;;;3.10;;
69334;SDS011;56477;52.742;15.242;2023-05-14T13:18:14;7.10;;;3.40;;
69334;SDS011;56477;52.742;15.242;2023-05-14T13:20:41;5.30;;;3.30;;
69334;SDS011;56477;52.742;15.242;2023-05-14T13:23:07;5.65;;;3.30;;
69334;SDS011;56477;52.742;15.242;2023-05-14T13:25:34;5.00;;;3.22;;
69334;SDS011;56477;52.742;15.242;2023-05-14T13:28:00;6.55;;;3.65;;
69334;SDS011;56477;52.742;15.242;2023-05-14T13:30:26;7.35;;;3.58;;
69334;SDS011;56477;52.742;15.242;2023-05-14T13:32:52;7.07;;;3.43;;
69334;SDS011;56477;52.742;15.242;2023-05-14T13:35:18;6.40;;;3.20;;
69334;SDS011;56477;52.742;15.242;2023-05-14T13:37:44;5.70;;;3.40;;
69334;SDS011;56477;52.742;15.242;2023-05-14T13:40:11;7.03;;;3.30;;
69334;SDS011;56477;52.742;15.242;2023-05-14T13:42:38;6.20;;;3.35;;
69334;SDS011;56477;52.742;15.242;2023-05-14T13:45:07;5.70;;;3.30;;
69334;SDS011;56477;52.742;15.242;2023-05-14T13:47:33;6.50;;;3.50;;
69334;SDS011;56477;52.742;15.242;2023-05-14T13:49:59;4.88;;;3.30;;
69334;SDS011;56477;52.742;15.242;2023-05-14T13:52:25;6.97;;;3.33;;
69334;SDS011;56477;52.742;15.242;2023-05-14T13:54:51;5.82;;;3.10;;
69334;SDS011;56477;52.742;15.242;2023-05-14T13:57:18;5.60;;;3.57;;
69334;SDS011;56477;52.742;15.242;2023-05-14T13:59:47;5.50;;;3.37;;
69334;SDS011;56477;52.742;15.242;2023-05-14T14:02:13;7.90;;;2.80;;
69334;SDS011;56477;52.742;15.242;2023-05-14T14:04:39;6.85;;;3.63;;
69334;SDS011;56477;52.742;15.242;2023-05-14T14:07:06;4.63;;;3.20;;
69334;SDS011;56477;52.742;15.242;2023-05-14T14:09:32;5.03;;;3.30;;
69334;SDS011;56477;52.742;15.242;2023-05-14T14:12:03;5.80;;;2.97;;
69334;SDS011;56477;52.742;15.242;2023-05-14T14:14:29;5.50;;;3.27;;
69334;SDS011;56477;52.742;15.242;2023-05-14T14:16:55;6.28;;;3.10;;
69334;SDS011;56477;52.742;15.242;2023-05-14T14:19:21;8.35;;;3.33;;
69334;SDS011;56477;52.742;15.242;2023-05-14T14:21:47;7.33;;;2.87;;
69334;SDS011;56477;52.742;15.242;2023-05-14T14:24:13;8.47;;;3.37;;
69334;SDS011;56477;52.742;15.242;2023-05-14T14:26:39;6.20;;;3.55;;
69334;SDS011;56477;52.742;15.242;2023-05-14T14:29:05;5.97;;;3.13;;
69334;SDS011;56477;52.742;15.242;2023-05-14T14:31:31;5.97;;;3.67;;
69334;SDS011;56477;52.742;15.242;2023-05-14T14:33:57;5.95;;;3.22;;
69334;SDS011;56477;52.742;15.242;2023-05-14T14:36:23;5.45;;;3.20;;
69334;SDS011;56477;52.742;15.242;2023-05-14T14:38:49;6.13;;;3.50;;
69334;SDS011;56477;52.742;15.242;2023-05-14T14:41:15;6.68;;;3.72;;
69334;SDS011;56477;52.742;15.242;2023-05-14T14:43:41;10.55;;;3.50;;